Gillette Campbell County Airport
KGCC : rendu visible

Aérodrome :











RETROUVEZ-NOUS SUR...

 
LOGIN :

S'inscrire | Disclaimer

   EN    FR    IT 

 









Légende :    VFR   VFR Marginal   IFR   IFR Intensif   IFR Très Intensif
Visi : 
Plafond : 
>= 8 km
>= 3000ft
5 à 8 km
1000 à 3000 ft
1500m à 5 km
500 à 1000 ft
800 à 1500m
200 à 500 ft
< 800m
< 200 ft
Symboles :   Orages  Brouillard  Fortes neiges  Fortes précipitations  Vent > 20 kt







- Altitude de l'aérodrome : 4365 ft


KGCC - Gillette Campbell County

DERNIER METAR :
  • 200553Z AUTO 17014KT 10SM CLR 11/02 A2981 RMK AO2 SLP064 T01110022 10217 20083 57015

METARs EXPIRÉS :
  • 200453Z AUTO 17010KT 10SM CLR 10/03 A2983 RMK AO2 SLP071 T01000033
  • 200353Z AUTO 17011KT 10SM CLR 11/04 A2985 RMK AO2 SLP081 T01060039

TAF KGCC
Valide du 20 à 06h jusqu'au 21 à 06h UTC


200520Z 2006/2106 18012KT P6SM SKC
FM200800 23012KT P6SM SKC
FM201900 35015KT P6SM BKN060
PROB30 2022/2102 -TSRA BKN050CB
FM210200 02013KT P6SM -RA OVC030
FIR KZDV / Amérique du Nord



MET'MAP, la Météo Aéronautique d'un coup d'oeil ! - Copyright ORBIFLY Décembre 2007 - Disclaimer

ORBIFLY MET'MAP TEAM :

Programmation & Développement : Alexandra Zaïnal
Conception & Développement : Baudouin d'Aumeries
Co-Programmation & Développement : Marc-Olivier Méhu
Soutien technique & logistique : Manuel Goepfert

Contact : metmap@orbifly.com




SOURCES & CREDITS :

   NOAA       Earth
Advisory